Time;durP1;ratioP1;P1;durP2;ratioP2;P2;SDS_P1;SDS_P2;PMS_P1;PMS_P2;Temp;Humidity;BMP_temperature;BMP_pressure;BME280_temperature;BME280_humidity;BME280_pressure;Samples;Min_cycle;Max_cycle;Signal;HPM_P1;HPM_P2
2024/01/31 00:00:08;;;;;;;4.72;0.50;;;5.70;88.40;;;;;;5128631;27;20142;-67
2024/01/31 00:02:36;;;;;;;2.97;0.38;;;5.70;88.60;;;;;;5128072;27;20043;-69
2024/01/31 00:05:04;;;;;;;3.67;0.50;;;5.70;88.70;;;;;;5128152;27;20051;-68
2024/01/31 00:07:31;;;;;;;4.60;0.60;;;5.70;88.70;;;;;;5141447;27;20170;-68
2024/01/31 00:09:59;;;;;;;3.37;0.63;;;5.70;88.70;;;;;;5127795;27;20611;-70
2024/01/31 00:12:27;;;;;;;3.40;0.60;;;5.70;88.90;;;;;;5126660;27;20086;-70
2024/01/31 00:14:54;;;;;;;2.50;0.20;;;5.70;88.70;;;;;;5127136;27;20421;-70
2024/01/31 00:17:21;;;;;;;7.28;1.10;;;5.70;88.90;;;;;;5128217;27;20468;-69
2024/01/31 00:19:48;;;;;;;5.68;0.80;;;5.70;88.70;;;;;;5110684;27;20142;-68
2024/01/31 00:22:15;;;;;;;5.63;0.40;;;5.60;88.80;;;;;;5126748;27;20140;-69
2024/01/31 00:24:42;;;;;;;2.00;0.20;;;5.70;89.00;;;;;;5126905;27;20462;-69
2024/01/31 00:27:11;;;;;;;3.45;0.40;;;5.60;89.00;;;;;;5127057;27;20226;-68
2024/01/31 00:29:37;;;;;;;6.40;0.40;;;5.60;88.90;;;;;;5108957;27;20055;-70
2024/01/31 00:32:05;;;;;;;3.75;0.17;;;5.60;89.00;;;;;;5130248;27;20138;-70
2024/01/31 00:34:32;;;;;;;1.30;0.20;;;5.60;89.10;;;;;;5109703;27;20083;-70
2024/01/31 00:36:59;;;;;;;3.45;0.47;;;5.60;89.10;;;;;;5127896;27;20062;-67
2024/01/31 00:39:31;;;;;;;3.05;0.40;;;5.60;89.10;;;;;;5128490;27;20174;-70
2024/01/31 00:41:58;;;;;;;3.67;0.63;;;5.50;89.30;;;;;;5134212;27;21255;-68
2024/01/31 00:44:27;;;;;;;5.07;0.47;;;5.50;89.50;;;;;;5131849;27;20046;-68
2024/01/31 00:46:54;;;;;;;6.63;0.70;;;5.50;89.50;;;;;;5114574;27;20047;-70
2024/01/31 00:49:21;;;;;;;1.92;0.28;;;5.50;89.60;;;;;;5144606;27;20054;-68
2024/01/31 00:51:48;;;;;;;4.25;0.45;;;5.60;89.60;;;;;;5132354;27;20117;-70
2024/01/31 00:54:15;;;;;;;4.43;0.90;;;5.60;89.60;;;;;;5114531;27;20170;-68
2024/01/31 00:56:42;;;;;;;3.05;0.40;;;5.60;89.50;;;;;;5132948;27;20503;-69
2024/01/31 00:59:09;;;;;;;2.53;0.40;;;5.60;89.40;;;;;;5152963;27;20198;-69
2024/01/31 01:01:37;;;;;;;6.47;0.40;;;5.60;89.40;;;;;;5152066;27;20429;-69
2024/01/31 01:04:04;;;;;;;4.20;0.50;;;5.60;89.40;;;;;;5135002;27;20111;-70
2024/01/31 01:06:31;;;;;;;2.38;0.30;;;5.60;89.30;;;;;;5150908;27;20282;-69
2024/01/31 01:08:58;;;;;;;2.38;0.38;;;5.60;89.40;;;;;;5151687;27;20180;-71
2024/01/31 01:11:25;;;;;;;4.33;0.57;;;5.60;89.30;;;;;;5151418;27;20063;-68
2024/01/31 01:13:52;;;;;;;2.63;0.38;;;5.60;89.20;;;;;;5139876;27;20124;-70
2024/01/31 01:16:19;;;;;;;5.25;0.57;;;5.60;89.30;;;;;;5131095;27;20062;-68
2024/01/31 01:18:48;;;;;;;4.60;1.05;;;5.60;89.30;;;;;;5131310;27;20058;-71
2024/01/31 01:21:15;;;;;;;5.35;0.55;;;5.60;89.30;;;;;;5149500;27;20051;-69
2024/01/31 01:23:42;;;;;;;3.87;0.50;;;5.60;89.30;;;;;;5123117;27;20151;-70
2024/01/31 01:26:09;;;;;;;6.10;0.43;;;5.50;89.30;;;;;;5150066;27;20130;-70
2024/01/31 01:28:36;;;;;;;3.85;0.40;;;5.60;89.30;;;;;;5151392;27;20090;-68
2024/01/31 01:31:03;;;;;;;3.20;0.50;;;5.60;89.40;;;;;;5148919;27;20054;-71
2024/01/31 01:33:30;;;;;;;5.93;0.88;;;5.60;89.50;;;;;;5148052;27;20051;-70
2024/01/31 01:35:59;;;;;;;5.33;0.57;;;5.60;89.40;;;;;;5148789;27;20064;-69
2024/01/31 01:38:26;;;;;;;2.72;0.30;;;5.60;89.40;;;;;;5167276;27;20147;-68
2024/01/31 01:40:53;;;;;;;3.88;0.30;;;5.70;89.50;;;;;;5161066;27;20047;-68
2024/01/31 01:43:21;;;;;;;5.55;0.80;;;5.70;89.40;;;;;;5127921;27;20130;-69
2024/01/31 01:45:48;;;;;;;4.15;0.57;;;5.70;89.40;;;;;;5130675;27;20160;-69
2024/01/31 01:48:16;;;;;;;2.57;0.20;;;5.70;89.30;;;;;;5130933;27;20132;-69
2024/01/31 01:50:45;;;;;;;4.22;0.30;;;5.70;89.20;;;;;;5141981;27;20059;-68
2024/01/31 01:53:13;;;;;;;5.78;0.47;;;5.70;89.20;;;;;;5129938;27;20504;-70
2024/01/31 01:55:43;;;;;;;3.28;0.30;;;5.70;89.10;;;;;;5130457;27;20132;-69
2024/01/31 01:58:11;;;;;;;3.50;0.40;;;5.70;89.00;;;;;;5112696;27;20158;-68
2024/01/31 02:00:40;;;;;;;4.60;0.30;;;5.70;88.90;;;;;;5137047;27;20122;-69
2024/01/31 02:03:08;;;;;;;2.47;0.20;;;5.70;88.80;;;;;;5147919;27;20166;-69
2024/01/31 02:05:36;;;;;;;3.17;0.22;;;5.70;88.70;;;;;;5113472;27;20051;-68
2024/01/31 02:08:03;;;;;;;4.30;0.30;;;5.60;88.40;;;;;;5113045;27;20055;-68
2024/01/31 02:10:31;;;;;;;4.90;0.40;;;5.60;88.30;;;;;;5125664;27;20139;-72
2024/01/31 02:12:58;;;;;;;3.70;0.30;;;5.60;88.40;;;;;;5130398;27;20462;-69
2024/01/31 02:15:25;;;;;;;4.63;0.50;;;5.60;88.40;;;;;;5130384;27;20466;-70
2024/01/31 02:17:52;;;;;;;4.68;0.30;;;5.60;88.40;;;;;;5149147;27;20213;-69
2024/01/31 02:20:19;;;;;;;2.92;0.20;;;5.60;88.40;;;;;;5147585;27;20038;-69
2024/01/31 02:22:48;;;;;;;3.17;0.30;;;5.60;88.40;;;;;;5133495;27;20042;-72
2024/01/31 02:25:15;;;;;;;4.90;0.60;;;5.60;88.40;;;;;;5150718;27;20057;-69
2024/01/31 02:27:42;;;;;;;4.63;0.60;;;5.50;88.40;;;;;;5146772;27;20083;-71
2024/01/31 02:30:10;;;;;;;3.53;0.30;;;5.60;88.50;;;;;;5129412;27;20138;-69
2024/01/31 02:32:38;;;;;;;2.58;0.20;;;5.60;88.50;;;;;;5130514;27;20139;-70
2024/01/31 02:35:05;;;;;;;2.85;0.30;;;5.60;88.50;;;;;;5129970;27;20047;-69
2024/01/31 02:37:32;;;;;;;2.67;0.20;;;5.60;88.50;;;;;;5130101;27;20116;-70
2024/01/31 02:40:01;;;;;;;3.78;0.50;;;5.60;88.50;;;;;;5116646;27;20199;-69
2024/01/31 02:42:28;;;;;;;3.20;0.30;;;5.60;88.50;;;;;;5150563;27;20043;-70
2024/01/31 02:44:55;;;;;;;4.82;0.32;;;5.60;88.50;;;;;;5151126;27;20557;-71
2024/01/31 02:47:22;;;;;;;2.53;0.22;;;5.70;88.50;;;;;;5168502;27;20087;-71
2024/01/31 02:49:49;;;;;;;3.73;0.30;;;5.70;88.40;;;;;;5150484;27;20051;-71
2024/01/31 02:52:16;;;;;;;3.92;0.30;;;5.70;88.40;;;;;;5149879;27;20078;-70
2024/01/31 02:54:43;;;;;;;5.38;0.30;;;5.70;88.40;;;;;;5132788;27;20154;-70
2024/01/31 02:57:12;;;;;;;6.15;0.40;;;5.70;88.40;;;;;;5145517;27;20557;-69
2024/01/31 02:59:39;;;;;;;4.50;0.60;;;5.70;88.20;;;;;;5129092;27;20136;-69
2024/01/31 03:02:06;;;;;;;4.13;0.30;;;5.70;88.20;;;;;;5129192;27;20051;-71
2024/01/31 03:04:33;;;;;;;3.60;0.52;;;5.70;88.00;;;;;;5112003;27;20142;-69
2024/01/31 03:07:00;;;;;;;4.15;0.45;;;5.70;87.90;;;;;;5128845;27;20051;-70
2024/01/31 03:09:27;;;;;;;4.38;0.30;;;5.70;87.70;;;;;;5128751;27;20071;-69
2024/01/31 03:11:54;;;;;;;4.20;0.30;;;5.70;87.50;;;;;;5128709;27;20059;-70
2024/01/31 03:14:23;;;;;;;5.83;0.50;;;5.70;87.30;;;;;;5129482;27;20122;-70
2024/01/31 03:16:50;;;;;;;5.13;0.45;;;5.70;87.00;;;;;;5132484;27;20266;-69
2024/01/31 03:19:17;;;;;;;3.53;0.40;;;5.70;86.70;;;;;;5132430;27;20131;-70
2024/01/31 03:21:44;;;;;;;4.22;0.43;;;5.70;86.60;;;;;;5131725;27;20076;-70
2024/01/31 03:24:11;;;;;;;7.00;0.60;;;5.70;86.50;;;;;;5149397;27;20138;-70
2024/01/31 03:26:38;;;;;;;3.37;0.40;;;5.70;86.40;;;;;;5132856;27;20054;-69
2024/01/31 03:29:04;;;;;;;4.97;0.30;;;5.60;86.40;;;;;;5168724;27;20129;-69
2024/01/31 03:31:33;;;;;;;1.80;0.20;;;5.60;86.40;;;;;;5149514;27;20078;-69
2024/01/31 03:34:00;;;;;;;1.98;0.30;;;5.60;86.30;;;;;;5145915;27;20051;-69
2024/01/31 03:36:27;;;;;;;4.82;0.30;;;5.60;86.30;;;;;;5148040;27;20162;-70
2024/01/31 03:38:57;;;;;;;5.30;0.50;;;5.60;86.30;;;;;;5111381;27;20139;-69
2024/01/31 03:41:24;;;;;;;4.55;0.40;;;5.50;86.30;;;;;;5140639;27;20149;-69
2024/01/31 03:43:51;;;;;;;3.53;0.35;;;5.50;86.30;;;;;;5149755;27;20123;-71
2024/01/31 03:46:18;;;;;;;5.55;0.38;;;5.50;86.40;;;;;;5149336;27;20127;-69
2024/01/31 03:48:46;;;;;;;4.22;0.40;;;5.50;86.50;;;;;;5149240;27;20099;-72
2024/01/31 03:51:19;;;;;;;5.37;0.40;;;5.50;86.50;;;;;;5134036;27;20047;-70
2024/01/31 03:53:46;;;;;;;5.22;0.40;;;5.50;86.40;;;;;;5147031;27;20047;-69
2024/01/31 03:56:13;;;;;;;2.63;0.20;;;5.50;86.40;;;;;;5147331;27;20059;-70
2024/01/31 03:58:41;;;;;;;4.80;0.20;;;5.50;86.50;;;;;;5151250;27;20047;-70
2024/01/31 04:01:08;;;;;;;3.85;0.60;;;5.50;86.50;;;;;;5168061;27;20592;-69
2024/01/31 04:03:38;;;;;;;3.53;0.20;;;5.50;86.60;;;;;;5150172;27;21075;-72
2024/01/31 04:06:06;;;;;;;4.70;0.30;;;5.50;86.60;;;;;;5149459;27;20143;-69
2024/01/31 04:08:33;;;;;;;4.40;0.45;;;5.60;86.70;;;;;;5129369;27;20059;-70
2024/01/31 04:11:00;;;;;;;1.85;0.13;;;5.60;86.60;;;;;;5127550;27;20079;-69
2024/01/31 04:13:27;;;;;;;2.70;0.30;;;5.60;86.60;;;;;;5128146;27;20157;-72
2024/01/31 04:15:54;;;;;;;4.10;0.20;;;5.60;86.50;;;;;;5111350;27;20644;-69
2024/01/31 04:18:21;;;;;;;2.58;0.30;;;5.60;86.50;;;;;;5148822;27;21586;-68
2024/01/31 04:20:48;;;;;;;3.67;0.55;;;5.60;86.50;;;;;;5152445;27;20076;-70
2024/01/31 04:23:17;;;;;;;5.05;0.20;;;5.60;86.40;;;;;;5135362;27;20082;-69
2024/01/31 04:25:44;;;;;;;2.83;0.20;;;5.60;86.40;;;;;;5152895;27;20111;-71
2024/01/31 04:28:13;;;;;;;3.03;0.30;;;5.60;86.30;;;;;;5135429;27;20683;-71
2024/01/31 04:30:40;;;;;;;2.97;0.20;;;5.60;86.10;;;;;;5131009;27;20043;-69
2024/01/31 04:33:07;;;;;;;3.70;0.25;;;5.60;86.10;;;;;;5132832;27;20158;-71
2024/01/31 04:35:34;;;;;;;2.05;0.20;;;5.60;86.00;;;;;;5132210;27;20047;-72
2024/01/31 04:38:01;;;;;;;2.65;0.28;;;5.60;86.00;;;;;;5115001;27;20050;-70
2024/01/31 04:40:30;;;;;;;3.80;0.20;;;5.60;85.90;;;;;;5113706;27;20126;-71
2024/01/31 04:42:57;;;;;;;2.80;0.20;;;5.60;85.90;;;;;;5114695;27;20143;-69
2024/01/31 04:45:24;;;;;;;3.13;0.20;;;5.60;85.80;;;;;;5114329;27;20134;-71
2024/01/31 04:47:51;;;;;;;1.83;0.10;;;5.60;85.60;;;;;;5150576;27;20047;-71
2024/01/31 04:50:18;;;;;;;2.67;0.20;;;5.60;85.50;;;;;;5149707;27;20257;-69
2024/01/31 04:52:45;;;;;;;2.87;0.20;;;5.60;85.20;;;;;;5131314;27;20062;-72
2024/01/31 04:55:12;;;;;;;2.47;0.20;;;5.60;84.90;;;;;;5131212;27;20050;-70
2024/01/31 04:57:41;;;;;;;4.38;0.20;;;5.50;84.70;;;;;;5131535;27;20031;-71
2024/01/31 05:00:15;;;;;;;2.65;0.30;;;5.50;84.40;;;;;;5150771;27;20058;-71
2024/01/31 05:02:42;;;;;;;2.92;0.35;;;5.50;84.30;;;;;;5130840;27;20051;-71
2024/01/31 05:05:09;;;;;;;4.00;0.30;;;5.50;84.20;;;;;;5149723;27;20134;-71
2024/01/31 05:07:36;;;;;;;1.63;0.20;;;5.50;84.10;;;;;;5147789;27;20117;-70
2024/01/31 05:10:04;;;;;;;4.20;0.40;;;5.50;84.00;;;;;;5138957;27;20058;-71
2024/01/31 05:12:31;;;;;;;5.57;0.30;;;5.40;84.10;;;;;;5130385;27;20839;-71
2024/01/31 05:14:59;;;;;;;2.78;0.30;;;5.40;84.10;;;;;;5130611;27;20043;-70
2024/01/31 05:17:26;;;;;;;4.13;0.40;;;5.40;84.10;;;;;;5147370;27;20132;-71
2024/01/31 05:19:53;;;;;;;4.93;0.73;;;5.30;84.10;;;;;;5147263;27;20145;-71
2024/01/31 05:22:20;;;;;;;5.68;0.40;;;5.30;84.10;;;;;;5129975;27;20613;-71
2024/01/31 05:24:47;;;;;;;3.58;0.40;;;5.30;84.20;;;;;;5130933;27;20142;-71
2024/01/31 05:27:14;;;;;;;4.78;0.38;;;5.30;83.90;;;;;;5113746;27;20119;-71
2024/01/31 05:29:41;;;;;;;5.10;0.60;;;5.30;83.80;;;;;;5129737;27;20126;-71
2024/01/31 05:32:09;;;;;;;4.07;0.40;;;5.30;83.80;;;;;;5129686;27;20142;-70
2024/01/31 05:34:37;;;;;;;3.28;0.50;;;5.30;83.50;;;;;;5133828;27;20100;-71
2024/01/31 05:37:04;;;;;;;4.70;0.40;;;5.30;83.60;;;;;;5130361;27;20127;-71
2024/01/31 05:39:31;;;;;;;4.25;0.30;;;5.30;83.70;;;;;;5130380;27;20078;-70
2024/01/31 05:41:58;;;;;;;3.53;0.53;;;5.20;83.70;;;;;;5131247;27;20130;-71
2024/01/31 05:44:25;;;;;;;2.30;0.50;;;5.30;83.70;;;;;;5151379;27;20907;-70
2024/01/31 05:46:52;;;;;;;5.60;0.50;;;5.20;83.70;;;;;;5150401;27;20051;-71
2024/01/31 05:49:21;;;;;;;4.07;0.30;;;5.20;83.90;;;;;;5133517;27;20047;-70
2024/01/31 05:51:49;;;;;;;3.97;0.30;;;5.30;83.90;;;;;;5148033;27;20134;-71
2024/01/31 05:54:16;;;;;;;3.97;0.43;;;5.30;83.90;;;;;;5129905;27;20057;-70
2024/01/31 05:56:43;;;;;;;3.40;0.30;;;5.30;83.90;;;;;;5129857;27;20062;-70
2024/01/31 05:59:10;;;;;;;3.67;0.55;;;5.30;84.00;;;;;;5130046;27;20268;-71
2024/01/31 06:01:37;;;;;;;4.80;0.30;;;5.30;83.80;;;;;;5129231;27;20142;-71
2024/01/31 06:04:06;;;;;;;4.13;0.40;;;5.30;83.70;;;;;;5112830;27;20552;-70
2024/01/31 06:06:34;;;;;;;3.47;0.47;;;5.30;83.80;;;;;;5148899;27;20096;-70
2024/01/31 06:09:01;;;;;;;2.67;0.50;;;5.30;84.00;;;;;;5129995;27;20146;-71
2024/01/31 06:11:28;;;;;;;4.80;0.60;;;5.30;84.10;;;;;;5147980;27;20218;-71
2024/01/31 06:13:55;;;;;;;5.10;0.68;;;5.30;84.10;;;;;;5129817;27;20138;-70
2024/01/31 06:16:22;;;;;;;6.07;0.90;;;5.30;84.20;;;;;;5129562;27;20083;-71
2024/01/31 06:18:49;;;;;;;4.70;0.70;;;5.30;84.30;;;;;;5129351;27;20134;-71
2024/01/31 06:21:16;;;;;;;5.88;0.80;;;5.30;84.20;;;;;;5129021;27;20051;-70
2024/01/31 06:23:44;;;;;;;5.35;0.73;;;5.40;84.00;;;;;;5148730;27;20134;-71
2024/01/31 06:26:11;;;;;;;3.00;0.43;;;5.40;83.90;;;;;;5129919;27;20130;-71
2024/01/31 06:28:38;;;;;;;4.78;0.60;;;5.30;83.90;;;;;;5129342;27;20238;-71
2024/01/31 06:31:13;;;;;;;6.20;0.60;;;5.40;83.90;;;;;;5129140;27;20569;-71
2024/01/31 06:33:41;;;;;;;4.85;0.65;;;5.40;83.70;;;;;;5112127;27;20119;-71
2024/01/31 06:36:08;;;;;;;3.63;0.50;;;5.40;83.70;;;;;;5129763;27;20070;-71
2024/01/31 06:38:36;;;;;;;5.22;0.60;;;5.40;83.60;;;;;;5137788;27;20129;-70
2024/01/31 06:41:04;;;;;;;6.40;0.68;;;5.40;83.50;;;;;;5136729;27;20079;-70
2024/01/31 06:43:31;;;;;;;4.13;0.60;;;5.50;83.30;;;;;;5129528;27;20193;-71
2024/01/31 06:45:58;;;;;;;4.18;0.60;;;5.40;83.30;;;;;;5129269;27;20052;-70
2024/01/31 06:48:25;;;;;;;5.80;1.10;;;5.40;83.30;;;;;;5147979;27;20070;-71
2024/01/31 06:50:52;;;;;;;4.88;0.90;;;5.40;83.30;;;;;;5128588;27;20915;-70
2024/01/31 06:53:19;;;;;;;4.70;0.95;;;5.40;83.30;;;;;;5112208;27;20187;-71
2024/01/31 06:55:46;;;;;;;6.83;0.80;;;5.40;83.30;;;;;;5127642;27;20063;-70
2024/01/31 06:58:14;;;;;;;5.30;0.98;;;5.40;83.20;;;;;;5111170;27;20596;-71
2024/01/31 07:00:41;;;;;;;4.80;1.10;;;5.50;82.80;;;;;;5128529;27;20671;-71
2024/01/31 07:03:09;;;;;;;6.97;1.20;;;5.40;82.70;;;;;;5129160;27;20059;-71
2024/01/31 07:05:36;;;;;;;8.13;1.70;;;5.40;82.80;;;;;;5128657;27;20039;-71
2024/01/31 07:08:03;;;;;;;6.33;1.20;;;5.40;82.80;;;;;;5128794;27;20275;-71
2024/01/31 07:10:30;;;;;;;6.85;1.02;;;5.40;82.60;;;;;;5128243;27;20568;-71
2024/01/31 07:12:57;;;;;;;6.75;1.10;;;5.30;82.50;;;;;;5129060;27;20178;-71
2024/01/31 07:15:25;;;;;;;6.93;0.90;;;5.40;82.40;;;;;;5147421;27;20043;-71
2024/01/31 07:17:52;;;;;;;5.78;1.42;;;5.30;82.00;;;;;;5132523;27;20141;-71
2024/01/31 07:20:19;;;;;;;4.80;0.50;;;5.30;81.70;;;;;;5149543;27;20130;-70
2024/01/31 07:22:46;;;;;;;6.70;1.52;;;5.30;80.80;;;;;;5144931;27;20071;-71
2024/01/31 07:25:13;;;;;;;4.72;0.85;;;5.30;80.40;;;;;;5128620;27;20142;-71
2024/01/31 07:27:41;;;;;;;5.47;0.90;;;5.30;80.30;;;;;;5128178;27;20441;-71
2024/01/31 07:30:10;;;;;;;7.53;1.52;;;5.30;80.50;;;;;;5110825;27;20051;-71
2024/01/31 07:32:39;;;;;;;6.43;1.50;;;5.30;80.60;;;;;;5127160;27;20598;-70
2024/01/31 07:35:08;;;;;;;6.80;1.80;;;5.30;80.70;;;;;;5127234;27;20118;-71
2024/01/31 07:37:36;;;;;;;8.15;1.80;;;5.30;81.00;;;;;;5110876;27;20063;-71
2024/01/31 07:40:04;;;;;;;8.05;2.00;;;5.30;81.20;;;;;;5144492;27;20556;-71
2024/01/31 07:42:31;;;;;;;5.13;1.85;;;5.30;81.40;;;;;;5145942;27;20046;-71
2024/01/31 07:44:58;;;;;;;5.67;1.80;;;5.30;81.50;;;;;;5143672;27;20079;-70
2024/01/31 07:47:25;;;;;;;6.18;1.80;;;5.30;81.60;;;;;;5143661;27;20134;-70
2024/01/31 07:49:54;;;;;;;5.63;2.03;;;5.30;81.80;;;;;;5145671;27;20054;-70
2024/01/31 07:52:21;;;;;;;7.45;2.17;;;5.30;81.90;;;;;;5152113;27;20084;-70
2024/01/31 07:54:48;;;;;;;5.45;1.92;;;5.30;81.90;;;;;;5153454;27;20098;-70
2024/01/31 07:57:15;;;;;;;8.37;2.87;;;5.30;81.90;;;;;;5132207;27;20050;-70
2024/01/31 07:59:42;;;;;;;6.05;1.90;;;5.30;81.80;;;;;;5170876;27;20121;-70
2024/01/31 08:02:09;;;;;;;8.20;2.35;;;5.40;81.60;;;;;;5151774;27;20169;-70
2024/01/31 08:04:36;;;;;;;7.05;2.45;;;5.40;81.60;;;;;;5150500;27;20539;-71
2024/01/31 08:07:04;;;;;;;8.07;2.60;;;5.40;81.60;;;;;;5152447;27;20130;-70
2024/01/31 08:09:31;;;;;;;6.13;2.20;;;5.40;81.50;;;;;;5152869;27;20119;-70
2024/01/31 08:11:58;;;;;;;7.45;2.83;;;5.50;81.40;;;;;;5154964;27;20103;-70
2024/01/31 08:14:26;;;;;;;6.05;2.38;;;5.50;81.00;;;;;;5147065;27;20133;-70
2024/01/31 08:16:53;;;;;;;5.90;2.20;;;5.50;81.00;;;;;;5138153;27;20069;-70
2024/01/31 08:19:20;;;;;;;5.95;2.25;;;5.50;80.90;;;;;;5173688;27;20054;-70
2024/01/31 08:21:47;;;;;;;5.97;2.37;;;5.50;80.60;;;;;;5152124;27;20142;-70
2024/01/31 08:24:16;;;;;;;6.82;2.45;;;5.50;80.40;;;;;;5155085;27;20134;-70
2024/01/31 08:26:43;;;;;;;6.32;2.40;;;5.50;80.30;;;;;;5154594;27;20767;-71
2024/01/31 08:29:10;;;;;;;7.35;2.42;;;5.50;80.20;;;;;;5153729;27;20150;-70
2024/01/31 08:31:37;;;;;;;7.75;2.60;;;5.50;80.20;;;;;;5150003;27;20066;-71
2024/01/31 08:34:04;;;;;;;8.50;3.20;;;5.50;80.20;;;;;;5171759;27;20126;-70
2024/01/31 08:36:31;;;;;;;8.95;2.92;;;5.50;79.90;;;;;;5134975;27;20210;-70
2024/01/31 08:38:59;;;;;;;5.60;2.50;;;5.50;79.90;;;;;;5153488;27;20122;-71
2024/01/31 08:41:28;;;;;;;6.15;2.55;;;5.50;80.10;;;;;;5146171;27;20055;-70
2024/01/31 08:43:55;;;;;;;7.10;2.60;;;5.50;80.10;;;;;;5151240;27;20508;-70
2024/01/31 08:46:22;;;;;;;7.53;3.17;;;5.50;80.10;;;;;;5151045;27;20197;-70
2024/01/31 08:48:49;;;;;;;7.20;2.47;;;5.60;80.10;;;;;;5134589;27;20225;-70
2024/01/31 08:51:16;;;;;;;7.18;2.97;;;5.50;80.10;;;;;;5146610;27;20055;-71
2024/01/31 08:53:44;;;;;;;5.65;2.58;;;5.60;80.10;;;;;;5131123;27;20161;-72
2024/01/31 08:56:11;;;;;;;6.78;2.80;;;5.60;80.00;;;;;;5113911;27;20047;-71
2024/01/31 08:58:39;;;;;;;7.37;3.17;;;5.60;80.10;;;;;;5150339;27;20126;-71
2024/01/31 09:01:07;;;;;;;6.68;2.70;;;5.60;80.00;;;;;;5138742;27;20057;-71
2024/01/31 09:03:34;;;;;;;7.05;2.67;;;5.60;79.80;;;;;;5143908;27;20043;-71
2024/01/31 09:06:01;;;;;;;6.40;2.40;;;5.60;79.70;;;;;;5162591;27;20059;-71
2024/01/31 09:08:28;;;;;;;7.43;2.60;;;5.60;79.70;;;;;;5148990;27;20046;-71
2024/01/31 09:10:57;;;;;;;4.47;2.43;;;5.60;79.60;;;;;;5147698;27;20133;-71
2024/01/31 09:13:24;;;;;;;7.85;2.55;;;5.60;79.40;;;;;;5131245;27;20812;-71
2024/01/31 09:15:53;;;;;;;5.65;2.25;;;5.70;79.20;;;;;;5149222;27;20070;-71
2024/01/31 09:18:20;;;;;;;5.70;2.38;;;5.70;79.10;;;;;;5147306;27;20047;-71
2024/01/31 09:20:48;;;;;;;6.78;2.40;;;5.70;78.70;;;;;;5149283;27;20600;-71
2024/01/31 09:23:15;;;;;;;5.10;2.53;;;5.70;78.50;;;;;;5134759;27;20586;-71
2024/01/31 09:25:42;;;;;;;5.90;2.50;;;5.70;78.40;;;;;;5146432;27;20107;-71
2024/01/31 09:28:09;;;;;;;5.47;2.38;;;5.70;78.40;;;;;;5149487;27;20050;-71
2024/01/31 09:30:35;;;;;;;5.63;2.40;;;5.70;78.30;;;;;;5145681;27;20116;-71
2024/01/31 09:33:04;;;;;;;5.60;2.58;;;5.70;78.20;;;;;;5148158;27;20107;-72
2024/01/31 09:35:31;;;;;;;7.07;2.90;;;5.80;77.90;;;;;;5149027;27;20053;-72
2024/01/31 09:37:58;;;;;;;6.15;2.80;;;5.80;77.50;;;;;;5150210;27;20584;-71
2024/01/31 09:40:25;;;;;;;5.90;2.60;;;5.80;77.50;;;;;;5140217;27;20139;-71
2024/01/31 09:42:52;;;;;;;6.93;2.30;;;5.80;77.50;;;;;;5129411;27;20096;-71
2024/01/31 09:45:22;;;;;;;5.30;2.30;;;5.90;77.60;;;;;;5139366;27;20047;-71
2024/01/31 09:47:50;;;;;;;6.57;2.60;;;5.90;77.50;;;;;;5132322;27;20127;-72
2024/01/31 09:50:19;;;;;;;6.20;2.47;;;5.90;77.60;;;;;;5145663;27;20059;-72
2024/01/31 09:52:52;;;;;;;6.40;2.50;;;5.90;77.70;;;;;;5149661;27;20529;-71
2024/01/31 09:55:23;;;;;;;5.72;2.55;;;5.90;77.40;;;;;;5146851;27;20129;-72
2024/01/31 09:57:50;;;;;;;5.07;2.53;;;5.90;77.50;;;;;;5146036;27;20130;-71
2024/01/31 10:00:18;;;;;;;5.47;2.00;;;6.00;77.20;;;;;;5168133;27;20058;-71
2024/01/31 10:02:48;;;;;;;5.65;2.60;;;6.00;77.30;;;;;;5150021;27;20509;-72
2024/01/31 10:05:15;;;;;;;6.22;2.22;;;6.00;77.50;;;;;;5144661;27;20054;-71
2024/01/31 10:07:44;;;;;;;6.10;2.60;;;6.00;77.60;;;;;;5149417;27;20130;-71
2024/01/31 10:10:11;;;;;;;6.75;2.25;;;6.00;77.70;;;;;;5149074;27;20085;-71
2024/01/31 10:12:39;;;;;;;7.10;2.40;;;6.00;77.80;;;;;;5164717;27;20092;-71
2024/01/31 10:15:08;;;;;;;7.63;2.70;;;6.00;77.80;;;;;;5149251;27;20065;-70
2024/01/31 10:17:35;;;;;;;7.05;2.63;;;6.00;77.80;;;;;;5140888;27;20138;-71
2024/01/31 10:20:07;;;;;;;9.05;2.67;;;6.10;77.90;;;;;;5135209;27;20082;-71
2024/01/31 10:22:36;;;;;;;6.50;2.75;;;6.10;78.00;;;;;;5125923;27;20050;-71
2024/01/31 10:25:07;;;;;;;6.27;2.40;;;6.10;77.90;;;;;;5143449;27;20047;-71
2024/01/31 10:27:35;;;;;;;6.18;2.85;;;6.10;77.90;;;;;;5142894;27;20093;-71
2024/01/31 10:30:04;;;;;;;6.93;3.03;;;6.10;77.80;;;;;;5143609;27;20082;-71
2024/01/31 10:32:34;;;;;;;6.25;2.88;;;6.20;77.70;;;;;;5125546;27;20051;-71
2024/01/31 10:35:02;;;;;;;5.93;2.40;;;6.20;77.50;;;;;;5144713;27;20043;-71
2024/01/31 10:37:31;;;;;;;6.17;3.17;;;6.20;77.40;;;;;;5143640;27;20077;-71
2024/01/31 10:39:59;;;;;;;6.95;2.92;;;6.20;77.20;;;;;;5144041;27;20047;-71
2024/01/31 10:42:28;;;;;;;7.10;3.25;;;6.20;77.10;;;;;;5148812;27;20067;-71
2024/01/31 10:44:55;;;;;;;8.35;3.80;;;6.20;77.30;;;;;;5146800;27;20089;-71
2024/01/31 10:47:22;;;;;;;6.68;3.50;;;6.30;77.10;;;;;;5131365;27;20137;-71
2024/01/31 10:49:49;;;;;;;7.57;3.60;;;6.30;77.00;;;;;;5148823;27;20115;-71
2024/01/31 10:52:19;;;;;;;7.40;3.72;;;6.30;76.50;;;;;;5147868;27;20075;-70
2024/01/31 10:54:52;;;;;;;7.72;4.25;;;6.30;76.60;;;;;;5145139;27;20450;-71
2024/01/31 10:57:20;;;;;;;10.00;4.28;;;6.30;76.50;;;;;;5148689;27;20099;-71
2024/01/31 10:59:50;;;;;;;8.20;3.95;;;6.40;76.00;;;;;;5147054;27;20158;-71
2024/01/31 11:02:17;;;;;;;9.47;4.03;;;6.40;76.00;;;;;;5143658;27;20077;-71
2024/01/31 11:04:45;;;;;;;7.97;3.80;;;6.40;76.20;;;;;;5148219;27;20047;-71
2024/01/31 11:07:17;;;;;;;8.32;3.90;;;6.40;75.90;;;;;;5146503;27;20070;-71
2024/01/31 11:09:45;;;;;;;7.38;4.28;;;6.50;75.80;;;;;;5145626;27;20061;-71
2024/01/31 11:12:14;;;;;;;7.57;3.38;;;6.50;76.00;;;;;;5142829;27;20157;-71
2024/01/31 11:14:42;;;;;;;7.07;3.40;;;6.50;76.00;;;;;;5144096;27;20660;-71
2024/01/31 11:17:14;;;;;;;6.70;3.70;;;6.50;76.20;;;;;;5147520;27;20062;-71
2024/01/31 11:19:42;;;;;;;8.48;3.72;;;6.50;76.50;;;;;;5147717;27;20573;-71
2024/01/31 11:22:10;;;;;;;8.93;3.97;;;6.50;76.80;;;;;;5146010;27;20122;-71
2024/01/31 11:24:43;;;;;;;9.23;3.88;;;6.50;77.10;;;;;;5126130;27;20628;-71
2024/01/31 11:27:10;;;;;;;8.20;4.50;;;6.50;77.30;;;;;;5147032;27;21065;-71
2024/01/31 11:29:37;;;;;;;10.55;5.32;;;6.50;77.50;;;;;;5147104;27;20134;-71
2024/01/31 11:32:05;;;;;;;9.00;4.70;;;6.50;77.60;;;;;;5147204;27;20051;-71
2024/01/31 11:34:33;;;;;;;10.23;5.30;;;6.60;77.80;;;;;;5144701;27;20507;-71
2024/01/31 11:37:00;;;;;;;10.05;5.30;;;6.50;77.90;;;;;;5145002;27;20046;-71
2024/01/31 11:39:27;;;;;;;10.03;5.13;;;6.60;78.20;;;;;;5147547;27;20161;-71
2024/01/31 11:41:55;;;;;;;9.65;5.88;;;6.60;78.20;;;;;;5144865;27;20042;-71
2024/01/31 11:44:22;;;;;;;10.88;5.63;;;6.60;78.50;;;;;;5147534;27;20123;-71
2024/01/31 11:46:50;;;;;;;9.77;5.13;;;6.60;78.50;;;;;;5147587;27;20130;-71
2024/01/31 11:49:17;;;;;;;11.73;5.68;;;6.60;78.50;;;;;;5147630;27;20051;-71
2024/01/31 11:51:46;;;;;;;9.40;4.90;;;6.60;78.50;;;;;;5129095;27;20040;-71
2024/01/31 11:54:13;;;;;;;8.80;5.15;;;6.60;78.50;;;;;;5127830;27;20067;-71
2024/01/31 11:56:40;;;;;;;8.63;4.72;;;6.60;78.20;;;;;;5137316;27;20111;-71
2024/01/31 11:59:08;;;;;;;8.77;4.97;;;6.60;77.90;;;;;;5147338;27;21075;-71
2024/01/31 12:01:35;;;;;;;9.00;4.20;;;6.60;77.80;;;;;;5147386;27;20197;-71
2024/01/31 12:04:02;;;;;;;8.57;4.77;;;6.70;77.80;;;;;;5136743;27;20134;-71
2024/01/31 12:06:30;;;;;;;8.43;4.55;;;6.60;77.90;;;;;;5124932;27;20047;-71
2024/01/31 12:08:59;;;;;;;8.85;4.63;;;6.60;78.00;;;;;;5125025;27;20051;-71
2024/01/31 12:11:26;;;;;;;8.20;4.00;;;6.70;77.60;;;;;;5123998;27;20104;-71
2024/01/31 12:13:54;;;;;;;8.27;4.05;;;6.70;77.70;;;;;;5138862;27;20051;-71
2024/01/31 12:16:21;;;;;;;10.40;5.67;;;6.70;77.50;;;;;;5143855;27;20198;-71
2024/01/31 12:18:59;;;;;;;10.52;4.47;;;6.70;77.20;;;;;;5146782;27;20092;-71
2024/01/31 12:21:26;;;;;;;9.75;4.82;;;6.80;76.90;;;;;;5140138;27;21000;-71
2024/01/31 12:23:53;;;;;;;10.60;5.07;;;6.80;76.70;;;;;;5147783;27;20055;-71
2024/01/31 12:26:21;;;;;;;8.60;4.20;;;6.80;76.30;;;;;;5147262;27;20140;-71
2024/01/31 12:28:54;;;;;;;7.80;4.30;;;6.80;76.10;;;;;;5142635;27;20584;-71
2024/01/31 12:31:22;;;;;;;10.63;5.43;;;6.90;76.00;;;;;;5144755;27;20126;-71
2024/01/31 12:33:49;;;;;;;9.07;4.50;;;6.90;76.00;;;;;;5144152;27;20047;-71
2024/01/31 12:36:16;;;;;;;10.05;5.03;;;6.90;76.00;;;;;;5144090;27;20157;-71
2024/01/31 12:38:43;;;;;;;9.73;4.97;;;6.90;75.90;;;;;;5144089;27;20058;-71
2024/01/31 12:41:10;;;;;;;7.17;3.80;;;6.90;76.00;;;;;;5145628;27;20659;-71
2024/01/31 12:43:38;;;;;;;9.45;4.60;;;6.90;75.70;;;;;;5150182;27;20129;-71
2024/01/31 12:46:06;;;;;;;9.57;5.60;;;6.90;75.70;;;;;;5149407;27;20145;-72
2024/01/31 12:48:33;;;;;;;9.45;5.65;;;7.00;74.80;;;;;;5167955;27;20501;-71
2024/01/31 12:51:00;;;;;;;10.55;5.85;;;7.00;75.10;;;;;;5147788;27;20063;-71
2024/01/31 12:53:27;;;;;;;12.83;6.77;;;7.00;74.90;;;;;;5147644;27;20053;-71
2024/01/31 12:55:54;;;;;;;11.20;6.40;;;7.00;74.80;;;;;;5146977;27;20067;-71